createdAt,value
2023-02-15T00:01:53.686Z,32.80
2023-02-15T00:04:23.938Z,33.00
2023-02-15T00:06:54.115Z,33.10
2023-02-15T00:09:21.276Z,33.20
2023-02-15T00:11:51.303Z,33.20
2023-02-15T00:14:21.576Z,33.30
2023-02-15T00:16:50.417Z,33.10
2023-02-15T00:19:22.175Z,33.10
2023-02-15T00:21:50.128Z,33.10
2023-02-15T00:24:19.714Z,33.10
2023-02-15T00:26:48.373Z,32.90
2023-02-15T00:29:17.020Z,33.00
2023-02-15T00:31:44.379Z,33.20
2023-02-15T00:34:19.802Z,33.30
2023-02-15T00:36:47.367Z,33.30
2023-02-15T00:39:14.582Z,33.20
2023-02-15T00:41:41.672Z,33.00
2023-02-15T00:44:09.153Z,32.80
2023-02-15T00:46:36.603Z,32.80
2023-02-15T00:49:04.506Z,32.80
2023-02-15T00:51:32.057Z,32.30
2023-02-15T00:53:59.711Z,32.60
2023-02-15T00:56:26.850Z,32.80
2023-02-15T00:58:54.316Z,32.80
2023-02-15T01:01:22.579Z,32.70
2023-02-15T01:03:49.642Z,32.50
2023-02-15T01:06:17.860Z,32.10
2023-02-15T01:08:48.399Z,32.30
2023-02-15T01:11:23.466Z,32.30
2023-02-15T01:13:55.884Z,31.60
2023-02-15T01:16:24.386Z,31.80
2023-02-15T01:18:51.592Z,31.70
2023-02-15T01:21:21.691Z,31.40
2023-02-15T01:23:49.277Z,31.20
2023-02-15T01:26:17.583Z,31.40
2023-02-15T01:28:45.351Z,31.20
2023-02-15T01:31:18.473Z,31.20
2023-02-15T01:33:47.491Z,31.60
2023-02-15T01:36:15.303Z,31.60
2023-02-15T01:38:42.878Z,31.30
2023-02-15T01:41:25.629Z,30.80
2023-02-15T01:44:01.897Z,30.50
2023-02-15T01:46:39.369Z,30.50
2023-02-15T01:49:16.294Z,30.30
2023-02-15T01:51:46.680Z,30.20
2023-02-15T01:54:28.782Z,30.70
2023-02-15T01:57:05.811Z,30.90
2023-02-15T01:59:37.573Z,31.10
2023-02-15T02:02:08.549Z,31.20
2023-02-15T02:04:42.425Z,31.00
2023-02-15T02:07:13.488Z,31.10
2023-02-15T02:09:40.349Z,31.10
2023-02-15T02:12:10.114Z,31.40
2023-02-15T02:14:38.728Z,31.30
2023-02-15T02:17:35.185Z,31.30
2023-02-15T02:20:19.101Z,31.40
2023-02-15T02:23:18.501Z,31.30
2023-02-15T02:26:13.943Z,31.10
2023-02-15T02:29:15.121Z,31.40
2023-02-15T02:31:51.264Z,31.60
2023-02-15T02:34:26.941Z,31.60
2023-02-15T02:37:03.602Z,30.90
2023-02-15T02:39:34.670Z,31.20
2023-02-15T02:42:04.620Z,31.00
2023-02-15T02:45:12.315Z,30.50
2023-02-15T02:47:55.053Z,30.20
2023-02-15T02:50:29.208Z,30.60
2023-02-15T02:52:58.592Z,30.50
2023-02-15T02:55:40.688Z,30.60
2023-02-15T02:58:15.701Z,30.50
2023-02-15T03:00:51.002Z,30.90
2023-02-15T03:03:27.323Z,30.50
2023-02-15T03:05:58.477Z,30.60
2023-02-15T03:08:30.189Z,30.60
2023-02-15T03:11:00.717Z,30.60
2023-02-15T03:13:28.889Z,30.60
2023-02-15T03:16:16.492Z,30.40
2023-02-15T03:18:58.601Z,30.50
2023-02-15T03:21:33.571Z,30.70
2023-02-15T03:24:16.881Z,30.90
2023-02-15T03:26:48.259Z,31.00
2023-02-15T03:29:18.763Z,31.00
2023-02-15T03:31:52.256Z,30.90
2023-02-15T03:34:19.952Z,31.00
2023-02-15T03:37:18.959Z,31.10
2023-02-15T03:39:57.681Z,31.00
2023-02-15T03:42:33.289Z,30.90
2023-02-15T03:45:09.743Z,30.90
2023-02-15T03:47:40.775Z,31.00
2023-02-15T03:50:35.592Z,31.00
2023-02-15T03:53:06.163Z,30.80
2023-02-15T03:55:35.391Z,30.70
2023-02-15T03:58:21.041Z,30.50
2023-02-15T04:01:17.144Z,30.00
2023-02-15T04:03:52.954Z,29.60
2023-02-15T04:06:20.306Z,29.50
2023-02-15T04:09:05.941Z,29.40
2023-02-15T04:11:33.000Z,29.50
2023-02-15T04:14:19.988Z,29.80
2023-02-15T04:16:47.126Z,29.90
2023-02-15T04:19:32.855Z,29.90
2023-02-15T04:22:18.233Z,30.10
2023-02-15T04:25:04.159Z,29.90
2023-02-15T04:27:31.291Z,30.20
2023-02-15T04:29:58.380Z,30.30
2023-02-15T04:32:25.572Z,30.40
2023-02-15T04:34:52.655Z,30.40
2023-02-15T04:37:19.863Z,30.30
2023-02-15T04:39:47.014Z,30.40
2023-02-15T04:42:14.115Z,30.20
2023-02-15T04:44:41.119Z,30.30
2023-02-15T04:47:08.186Z,30.20
2023-02-15T04:49:35.332Z,30.30
2023-02-15T04:52:02.360Z,29.90
2023-02-15T04:54:29.554Z,30.10
2023-02-15T04:56:56.559Z,30.20
2023-02-15T04:59:23.610Z,30.20
2023-02-15T05:01:50.811Z,29.90
2023-02-15T05:04:18.090Z,30.10
2023-02-15T05:06:45.324Z,29.80
2023-02-15T05:09:13.469Z,29.40
2023-02-15T05:11:40.739Z,28.90
2023-02-15T05:14:08.318Z,28.60
2023-02-15T05:16:35.457Z,28.90
2023-02-15T05:19:02.734Z,29.00
2023-02-15T05:21:29.771Z,29.40
2023-02-15T05:23:56.840Z,29.70
2023-02-15T05:26:43.903Z,29.60
2023-02-15T05:29:11.767Z,29.30
2023-02-15T05:31:39.455Z,29.50
2023-02-15T05:34:06.781Z,29.50
2023-02-15T05:36:33.830Z,29.30
2023-02-15T05:39:01.007Z,29.30
2023-02-15T05:41:28.077Z,29.30
2023-02-15T05:43:57.932Z,29.30
2023-02-15T05:46:25.008Z,29.60
2023-02-15T05:48:52.039Z,29.70
2023-02-15T05:51:19.072Z,29.50
2023-02-15T05:53:46.206Z,29.50
2023-02-15T05:56:13.656Z,29.60
2023-02-15T05:58:42.673Z,29.80
2023-02-15T06:01:19.420Z,29.90
2023-02-15T06:03:47.362Z,29.40
2023-02-15T06:06:14.571Z,29.30
2023-02-15T06:08:42.263Z,29.60
2023-02-15T06:11:09.344Z,29.80
2023-02-15T06:13:38.769Z,29.80
2023-02-15T06:16:07.620Z,30.00
2023-02-15T06:18:35.069Z,30.00
2023-02-15T06:21:02.221Z,30.00
2023-02-15T06:23:29.657Z,29.90
2023-02-15T06:25:56.692Z,29.90
2023-02-15T06:28:23.881Z,30.00
2023-02-15T06:30:50.999Z,30.20
2023-02-15T06:33:18.136Z,30.30
2023-02-15T06:35:46.627Z,30.20
2023-02-15T06:38:13.676Z,30.20
2023-02-15T06:40:40.755Z,29.90
2023-02-15T06:43:08.011Z,29.90
2023-02-15T06:45:37.354Z,30.10
2023-02-15T06:48:04.657Z,30.40
2023-02-15T06:50:31.805Z,30.60
2023-02-15T06:52:59.787Z,30.80
2023-02-15T06:55:27.096Z,30.80
2023-02-15T06:57:54.128Z,31.00
2023-02-15T07:00:23.242Z,30.90
2023-02-15T07:02:58.999Z,31.00
2023-02-15T07:05:32.557Z,31.50
2023-02-15T07:08:00.182Z,31.30
2023-02-15T07:10:28.409Z,31.80
2023-02-15T07:12:55.675Z,31.90
2023-02-15T07:15:22.910Z,32.30
2023-02-15T07:17:50.342Z,32.90
2023-02-15T07:20:22.613Z,32.90
2023-02-15T07:22:50.672Z,33.30
2023-02-15T07:25:18.725Z,33.80
2023-02-15T07:27:46.165Z,34.00
2023-02-15T07:30:15.819Z,34.20
2023-02-15T07:33:11.065Z,34.50
2023-02-15T07:35:38.092Z,34.50
2023-02-15T07:38:05.224Z,34.50
2023-02-15T07:40:32.381Z,34.10
2023-02-15T07:43:00.299Z,34.10
2023-02-15T07:45:28.100Z,34.20
2023-02-15T07:47:55.383Z,33.40
2023-02-15T07:50:22.454Z,32.40
2023-02-15T07:52:49.572Z,32.50
2023-02-15T07:55:17.845Z,32.20
2023-02-15T07:57:46.573Z,32.30
2023-02-15T08:00:16.378Z,32.20
2023-02-15T08:02:43.986Z,31.80
2023-02-15T08:05:11.349Z,32.00
2023-02-15T08:07:38.434Z,32.50
2023-02-15T08:10:06.787Z,32.60
2023-02-15T08:12:33.810Z,33.10
2023-02-15T08:15:00.868Z,33.20
2023-02-15T08:17:27.964Z,33.30
2023-02-15T08:19:54.941Z,33.40
2023-02-15T08:22:21.969Z,33.60
2023-02-15T08:24:49.255Z,33.40
2023-02-15T08:27:17.287Z,33.70
2023-02-15T08:29:44.557Z,33.70
2023-02-15T08:32:13.306Z,34.10
2023-02-15T08:34:42.863Z,34.20
2023-02-15T08:37:10.488Z,34.20
2023-02-15T08:39:38.079Z,35.00
2023-02-15T08:42:05.357Z,34.60
2023-02-15T08:44:32.478Z,34.00
2023-02-15T08:47:05.029Z,33.70
2023-02-15T08:49:32.900Z,34.00
2023-02-15T08:52:00.841Z,34.00
2023-02-15T08:54:28.186Z,34.20
2023-02-15T08:56:55.600Z,33.60
2023-02-15T08:59:24.332Z,33.60
2023-02-15T09:01:54.834Z,33.30
2023-02-15T09:04:23.870Z,33.50
2023-02-15T09:06:52.049Z,33.90
2023-02-15T09:09:20.369Z,34.20
2023-02-15T09:11:52.383Z,34.50
2023-02-15T09:14:24.682Z,34.60
2023-02-15T09:16:53.892Z,35.30
2023-02-15T09:19:22.598Z,35.50
2023-02-15T09:21:50.291Z,35.50
2023-02-15T09:24:18.710Z,35.40
2023-02-15T09:26:47.907Z,35.80
2023-02-15T09:29:16.536Z,35.80
2023-02-15T09:31:51.173Z,35.60
2023-02-15T09:34:21.958Z,36.20
2023-02-15T09:36:50.334Z,37.40
2023-02-15T09:39:20.524Z,37.50
2023-02-15T09:41:56.500Z,36.40
2023-02-15T09:44:38.628Z,35.80
2023-02-15T09:47:28.373Z,34.90
2023-02-15T09:50:27.382Z,34.30
2023-02-15T09:53:17.565Z,34.30
2023-02-15T09:55:52.529Z,34.40
2023-02-15T09:58:37.678Z,34.10
2023-02-15T10:01:20.790Z,34.40
2023-02-15T10:04:05.945Z,33.20
2023-02-15T10:07:06.166Z,33.50
2023-02-15T10:09:46.329Z,34.60
2023-02-15T10:12:25.000Z,33.70
2023-02-15T10:15:18.074Z,33.50
2023-02-15T10:18:03.887Z,33.20
2023-02-15T10:20:42.570Z,32.90
2023-02-15T10:23:47.110Z,32.60
2023-02-15T10:26:39.214Z,31.90
2023-02-15T10:29:17.397Z,32.50
2023-02-15T10:31:47.718Z,32.00
2023-02-15T10:34:27.164Z,31.90
2023-02-15T10:36:54.208Z,32.20
2023-02-15T10:39:41.421Z,32.30
2023-02-15T10:42:13.951Z,33.10
2023-02-15T10:44:47.015Z,33.20
2023-02-15T10:47:26.218Z,33.30
2023-02-15T10:50:14.173Z,33.70
2023-02-15T10:53:11.606Z,34.40
2023-02-15T10:55:50.572Z,35.30
2023-02-15T10:58:26.935Z,34.80
2023-02-15T11:01:40.435Z,34.70
2023-02-15T11:04:40.831Z,35.50
2023-02-15T11:07:13.675Z,35.70
2023-02-15T11:09:46.377Z,36.50
2023-02-15T11:12:19.901Z,36.20
2023-02-15T11:15:00.171Z,36.50
2023-02-15T11:17:38.553Z,36.80
2023-02-15T11:20:31.795Z,36.60
2023-02-15T11:22:59.649Z,35.70
2023-02-15T11:25:35.588Z,35.40
2023-02-15T11:28:13.146Z,35.30
2023-02-15T11:30:48.106Z,35.10
2023-02-15T11:33:27.719Z,35.00
2023-02-15T11:36:08.952Z,34.30
2023-02-15T11:38:37.700Z,33.10
2023-02-15T11:41:20.305Z,32.50
2023-02-15T11:44:10.006Z,31.60
2023-02-15T11:46:38.375Z,32.50
2023-02-15T11:49:29.456Z,32.40
2023-02-15T11:51:58.439Z,32.30
2023-02-15T11:54:33.496Z,33.40
2023-02-15T11:57:34.146Z,33.10
2023-02-15T12:00:08.808Z,33.50
2023-02-15T12:02:38.648Z,33.40
2023-02-15T12:05:14.077Z,32.10
2023-02-15T12:07:49.624Z,32.40
2023-02-15T12:10:27.749Z,32.80
2023-02-15T12:13:14.484Z,33.10
2023-02-15T12:16:11.489Z,33.60
2023-02-15T12:18:41.671Z,34.40
2023-02-15T12:21:31.098Z,33.00
2023-02-15T12:24:16.082Z,32.50
2023-02-15T12:26:43.359Z,32.20
2023-02-15T12:29:35.608Z,31.30
2023-02-15T12:32:03.432Z,31.20
2023-02-15T12:34:40.696Z,32.80
2023-02-15T12:37:29.940Z,32.50
2023-02-15T12:40:00.047Z,32.10
2023-02-15T12:42:30.231Z,31.70
2023-02-15T12:45:03.474Z,32.50
2023-02-15T12:47:32.449Z,33.10
2023-02-15T12:50:12.160Z,32.80
2023-02-15T12:52:41.195Z,33.10
2023-02-15T12:55:24.194Z,31.80
2023-02-15T12:58:10.148Z,31.20
2023-02-15T13:00:38.535Z,31.10
2023-02-15T13:03:05.776Z,31.50
2023-02-15T13:05:38.119Z,30.60
2023-02-15T13:08:21.533Z,30.60
2023-02-15T13:11:06.363Z,30.30
2023-02-15T13:13:36.275Z,29.80
2023-02-15T13:16:10.882Z,29.40
2023-02-15T13:18:52.574Z,29.60
2023-02-15T13:21:27.915Z,30.40
2023-02-15T13:23:58.998Z,31.50
2023-02-15T13:26:27.672Z,31.80
2023-02-15T13:28:58.794Z,31.10
2023-02-15T13:31:28.949Z,30.50
2023-02-15T13:34:20.162Z,30.60
2023-02-15T13:37:07.991Z,30.90
2023-02-15T13:39:50.158Z,30.30
2023-02-15T13:42:25.873Z,30.00
2023-02-15T13:45:24.558Z,30.30
2023-02-15T13:48:03.880Z,30.20
2023-02-15T13:51:05.068Z,30.60
2023-02-15T13:54:04.430Z,30.20
2023-02-15T13:56:58.128Z,29.20
2023-02-15T14:00:02.282Z,28.40
2023-02-15T14:02:45.418Z,28.70
2023-02-15T14:05:30.434Z,28.70
2023-02-15T14:08:12.202Z,30.10
2023-02-15T14:10:48.165Z,29.80
2023-02-15T14:13:39.662Z,29.90
2023-02-15T14:16:25.540Z,29.60
2023-02-15T14:19:10.860Z,28.90
2023-02-15T14:22:01.876Z,29.30
2023-02-15T14:24:31.782Z,29.60
2023-02-15T14:27:44.272Z,29.70
2023-02-15T14:30:27.970Z,29.10
2023-02-15T14:33:15.429Z,28.50
2023-02-15T14:35:43.945Z,28.50
2023-02-15T14:38:11.008Z,28.80
2023-02-15T14:41:04.713Z,28.70
2023-02-15T14:43:54.304Z,29.60
2023-02-15T14:46:32.133Z,30.40
2023-02-15T14:49:28.710Z,30.50
2023-02-15T14:51:59.137Z,30.30
2023-02-15T14:54:26.152Z,30.40
2023-02-15T14:57:02.570Z,30.80
2023-02-15T14:59:58.316Z,31.50
2023-02-15T15:02:49.285Z,31.50
2023-02-15T15:05:31.035Z,31.30
2023-02-15T15:08:00.888Z,31.30
2023-02-15T15:10:38.989Z,31.20
2023-02-15T15:13:30.691Z,30.80
2023-02-15T15:16:18.026Z,30.80
2023-02-15T15:18:48.153Z,31.20
2023-02-15T15:21:47.366Z,30.70
2023-02-15T15:24:52.118Z,30.70
2023-02-15T15:27:47.087Z,30.60
2023-02-15T15:30:20.355Z,31.40
2023-02-15T15:32:57.018Z,30.60
2023-02-15T15:35:56.155Z,30.20
2023-02-15T15:38:46.498Z,29.90
2023-02-15T15:41:41.532Z,30.30
2023-02-15T15:44:43.233Z,30.20
2023-02-15T15:47:31.145Z,31.00
2023-02-15T15:50:00.541Z,31.40
2023-02-15T15:52:33.448Z,31.70
2023-02-15T15:55:13.987Z,32.00
2023-02-15T15:57:44.557Z,32.20
2023-02-15T16:00:47.883Z,32.50
2023-02-15T16:03:26.149Z,32.50
2023-02-15T16:05:56.774Z,32.20
2023-02-15T16:08:34.314Z,32.30
2023-02-15T16:11:15.142Z,32.10
2023-02-15T16:13:48.073Z,32.10
2023-02-15T16:16:22.524Z,32.50
2023-02-15T16:18:50.514Z,32.80
2023-02-15T16:21:24.428Z,33.10
2023-02-15T16:24:05.162Z,33.30
2023-02-15T16:27:11.627Z,33.50
2023-02-15T16:29:38.708Z,33.20
2023-02-15T16:32:20.702Z,33.10
2023-02-15T16:35:03.301Z,33.00
2023-02-15T16:37:37.876Z,32.80
2023-02-15T16:40:05.457Z,32.80
2023-02-15T16:42:32.625Z,33.00
2023-02-15T16:45:04.923Z,32.90
2023-02-15T16:47:34.783Z,32.90
2023-02-15T16:50:05.133Z,33.00
2023-02-15T16:52:32.893Z,33.10
2023-02-15T16:55:06.101Z,33.10
2023-02-15T16:57:39.168Z,33.10
2023-02-15T17:00:16.379Z,32.30
2023-02-15T17:03:04.888Z,32.30
2023-02-15T17:05:49.571Z,32.60
2023-02-15T17:08:18.252Z,32.30
2023-02-15T17:11:11.219Z,32.20
2023-02-15T17:13:38.805Z,31.90
2023-02-15T17:16:06.196Z,31.50
2023-02-15T17:18:47.167Z,31.90
2023-02-15T17:21:29.089Z,32.20
2023-02-15T17:24:05.474Z,32.30
2023-02-15T17:26:35.980Z,32.50
2023-02-15T17:29:15.711Z,32.70
2023-02-15T17:31:49.000Z,32.80
2023-02-15T17:34:41.359Z,32.60
2023-02-15T17:37:26.591Z,32.30
2023-02-15T17:39:54.281Z,32.50
2023-02-15T17:42:21.589Z,31.70
2023-02-15T17:44:50.034Z,31.20
2023-02-15T17:47:20.617Z,31.20
2023-02-15T17:49:50.252Z,30.70
2023-02-15T17:52:18.719Z,30.20
2023-02-15T17:55:04.858Z,30.10
2023-02-15T17:57:32.334Z,29.80
2023-02-15T18:00:20.157Z,30.00
2023-02-15T18:03:05.943Z,29.90
2023-02-15T18:05:51.807Z,29.20
2023-02-15T18:08:42.221Z,28.60
2023-02-15T18:11:30.067Z,27.80
2023-02-15T18:14:01.569Z,27.40
2023-02-15T18:16:33.538Z,27.20
2023-02-15T18:19:04.889Z,27.40
2023-02-15T18:21:33.995Z,27.60
2023-02-15T18:24:01.221Z,28.10
2023-02-15T18:26:29.389Z,28.50
2023-02-15T18:28:56.567Z,29.30
2023-02-15T18:31:24.835Z,30.20
2023-02-15T18:33:57.797Z,30.90
2023-02-15T18:36:32.678Z,31.40
2023-02-15T18:39:05.735Z,30.90
2023-02-15T18:41:34.968Z,30.10
2023-02-15T18:44:02.005Z,30.10
2023-02-15T18:46:29.099Z,30.50
2023-02-15T18:48:56.247Z,30.60
2023-02-15T18:51:24.101Z,30.70
2023-02-15T18:53:53.491Z,30.80
2023-02-15T18:56:23.411Z,30.50
2023-02-15T18:58:50.864Z,30.60
2023-02-15T19:01:22.683Z,31.00
2023-02-15T19:03:51.760Z,31.20
2023-02-15T19:06:23.766Z,31.40
2023-02-15T19:08:52.851Z,31.40
2023-02-15T19:11:23.379Z,31.20
2023-02-15T19:13:53.367Z,31.10
2023-02-15T19:16:29.626Z,31.00
2023-02-15T19:18:57.004Z,30.90
2023-02-15T19:21:25.324Z,31.00
2023-02-15T19:24:05.472Z,31.20
2023-02-15T19:26:45.736Z,30.80
2023-02-15T19:29:16.083Z,29.80
2023-02-15T19:31:43.447Z,29.20
2023-02-15T19:34:16.100Z,28.40
2023-02-15T19:36:50.004Z,27.50
2023-02-15T19:39:28.013Z,27.50
2023-02-15T19:41:55.673Z,27.80
2023-02-15T19:44:22.746Z,28.40
2023-02-15T19:46:49.844Z,28.70
2023-02-15T19:49:17.161Z,28.00
2023-02-15T19:51:44.449Z,28.30
2023-02-15T19:54:31.270Z,28.60
2023-02-15T19:57:00.131Z,28.80
2023-02-15T19:59:33.473Z,29.30
2023-02-15T20:02:00.796Z,29.90
2023-02-15T20:04:27.985Z,29.90
2023-02-15T20:06:58.250Z,28.80
2023-02-15T20:09:35.650Z,28.40
2023-02-15T20:12:02.892Z,27.60
2023-02-15T20:14:30.035Z,27.80
2023-02-15T20:16:57.136Z,28.30
2023-02-15T20:19:24.347Z,28.30
2023-02-15T20:21:51.960Z,27.80
2023-02-15T20:24:22.538Z,28.00
2023-02-15T20:26:50.057Z,28.20
2023-02-15T20:29:18.706Z,28.90
2023-02-15T20:31:46.300Z,29.30
2023-02-15T20:34:13.531Z,29.20
2023-02-15T20:36:41.439Z,29.10
2023-02-15T20:39:17.761Z,28.80
2023-02-15T20:41:48.061Z,28.90
2023-02-15T20:44:20.173Z,28.70
2023-02-15T20:46:48.023Z,27.70
2023-02-15T20:49:15.473Z,27.40
2023-02-15T20:51:44.573Z,28.00
2023-02-15T20:54:18.107Z,27.40
2023-02-15T20:56:46.517Z,27.70
2023-02-15T20:59:28.194Z,27.10
2023-02-15T21:02:02.433Z,27.00
2023-02-15T21:04:33.744Z,27.00
2023-02-15T21:07:01.198Z,26.90
2023-02-15T21:09:28.857Z,26.30
2023-02-15T21:11:58.544Z,26.50
2023-02-15T21:14:28.544Z,27.20
2023-02-15T21:16:55.866Z,28.70
2023-02-15T21:19:24.326Z,29.70
2023-02-15T21:21:54.104Z,29.70
2023-02-15T21:24:28.315Z,29.40
2023-02-15T21:27:00.742Z,28.90
2023-02-15T21:29:29.291Z,28.30
2023-02-15T21:32:00.632Z,28.30
2023-02-15T21:34:27.814Z,28.50
2023-02-15T21:36:55.089Z,28.40
2023-02-15T21:39:27.416Z,28.60
2023-02-15T21:42:15.615Z,29.40
2023-02-15T21:45:01.234Z,29.80
2023-02-15T21:47:49.916Z,30.40
2023-02-15T21:50:42.484Z,30.60
2023-02-15T21:53:32.180Z,29.80
2023-02-15T21:56:04.763Z,29.20
2023-02-15T21:58:35.618Z,29.40
2023-02-15T22:01:03.538Z,30.00
2023-02-15T22:03:34.160Z,30.10
2023-02-15T22:06:02.134Z,29.10
2023-02-15T22:08:29.269Z,28.20
2023-02-15T22:10:57.346Z,27.70
2023-02-15T22:13:30.227Z,28.60
2023-02-15T22:15:58.573Z,29.80
2023-02-15T22:18:30.816Z,30.50
2023-02-15T22:21:03.267Z,30.80
2023-02-15T22:23:30.891Z,30.30
2023-02-15T22:26:02.508Z,29.80
2023-02-15T22:28:34.903Z,29.40
2023-02-15T22:31:04.655Z,29.80
2023-02-15T22:33:34.099Z,30.00
2023-02-15T22:36:01.590Z,29.30
2023-02-15T22:38:29.012Z,28.00
2023-02-15T22:40:58.537Z,27.60
2023-02-15T22:43:39.217Z,27.80
2023-02-15T22:46:20.391Z,26.90
2023-02-15T22:48:50.546Z,25.80
2023-02-15T22:51:23.587Z,25.80
2023-02-15T22:53:52.689Z,26.70
2023-02-15T22:56:26.806Z,27.10
2023-02-15T22:59:11.161Z,27.40
2023-02-15T23:01:41.369Z,27.70
2023-02-15T23:04:19.128Z,28.00
2023-02-15T23:06:46.548Z,28.70
2023-02-15T23:09:14.459Z,29.00
2023-02-15T23:11:44.383Z,29.70
2023-02-15T23:14:29.189Z,29.30
2023-02-15T23:16:56.420Z,28.30
2023-02-15T23:19:23.508Z,28.20
2023-02-15T23:21:51.109Z,27.70
2023-02-15T23:24:24.157Z,27.30
2023-02-15T23:26:51.279Z,26.60
2023-02-15T23:29:24.862Z,26.80
2023-02-15T23:31:53.927Z,27.50
2023-02-15T23:34:29.409Z,27.80
2023-02-15T23:36:57.391Z,27.50
2023-02-15T23:39:45.128Z,27.40
2023-02-15T23:42:18.858Z,28.20
2023-02-15T23:44:47.128Z,28.60
2023-02-15T23:47:41.714Z,28.00
2023-02-15T23:50:27.210Z,27.20
2023-02-15T23:52:55.791Z,26.60
2023-02-15T23:55:35.380Z,27.00
2023-02-15T23:58:05.123Z,27.70
